createdAt,value
2022-08-24T00:01:04.315Z,1.10
2022-08-24T00:03:34.597Z,1.00
2022-08-24T00:06:01.319Z,1.11
2022-08-24T00:08:27.667Z,1.05
2022-08-24T00:10:53.998Z,1.08
2022-08-24T00:13:20.336Z,1.08
2022-08-24T00:15:46.734Z,1.01
2022-08-24T00:18:13.095Z,1.14
2022-08-24T00:20:44.967Z,1.05
2022-08-24T00:23:11.627Z,1.22
2022-08-24T00:25:37.969Z,1.08
2022-08-24T00:28:04.487Z,1.16
2022-08-24T00:30:30.899Z,1.01
2022-08-24T00:32:57.281Z,1.06
2022-08-24T00:35:23.644Z,1.21
2022-08-24T00:37:49.992Z,1.18
2022-08-24T00:40:16.425Z,1.11
2022-08-24T00:42:42.782Z,0.99
2022-08-24T00:45:09.140Z,1.18
2022-08-24T00:47:35.481Z,1.07
2022-08-24T00:50:01.838Z,1.18
2022-08-24T00:52:28.179Z,1.10
2022-08-24T00:54:54.528Z,1.18
2022-08-24T00:57:20.882Z,1.01
2022-08-24T00:59:47.237Z,1.04
2022-08-24T01:02:15.206Z,0.92
2022-08-24T01:04:42.291Z,1.13
2022-08-24T01:07:08.645Z,1.17
2022-08-24T01:09:34.999Z,1.03
2022-08-24T01:12:01.340Z,0.94
2022-08-24T01:14:27.678Z,1.11
2022-08-24T01:16:54.021Z,1.09
2022-08-24T01:19:20.371Z,1.10
2022-08-24T01:21:46.725Z,1.15
2022-08-24T01:24:13.078Z,1.15
2022-08-24T01:26:39.435Z,1.13
2022-08-24T01:29:05.787Z,1.03
2022-08-24T01:31:32.652Z,1.10
2022-08-24T01:33:59.070Z,1.16
2022-08-24T01:36:28.168Z,1.08
2022-08-24T01:38:55.102Z,0.97
2022-08-24T01:41:23.100Z,1.04
2022-08-24T01:43:52.147Z,1.17
2022-08-24T01:46:18.525Z,1.07
2022-08-24T01:48:44.902Z,1.12
2022-08-24T01:51:11.246Z,0.96
2022-08-24T01:53:37.583Z,1.11
2022-08-24T01:56:03.926Z,1.14
2022-08-24T01:58:30.276Z,1.12
2022-08-24T02:00:56.632Z,1.14
2022-08-24T02:03:27.668Z,1.15
2022-08-24T02:05:56.995Z,1.11
2022-08-24T02:08:23.365Z,1.21
2022-08-24T02:10:56.343Z,1.06
2022-08-24T02:13:23.283Z,1.07
2022-08-24T02:15:49.703Z,1.08
2022-08-24T02:18:16.114Z,1.13
2022-08-24T02:20:42.469Z,0.97
2022-08-24T02:23:08.830Z,1.03
2022-08-24T02:25:35.180Z,1.08
2022-08-24T02:28:01.522Z,1.22
2022-08-24T02:30:27.875Z,1.03
2022-08-24T02:32:54.230Z,1.12
2022-08-24T02:35:20.579Z,1.10
2022-08-24T02:37:46.943Z,1.07
2022-08-24T02:40:13.353Z,1.05
2022-08-24T02:42:39.732Z,1.04
2022-08-24T02:45:06.076Z,1.02
2022-08-24T02:47:38.302Z,1.19
2022-08-24T02:50:05.510Z,1.03
2022-08-24T02:52:31.857Z,1.06
2022-08-24T02:54:58.218Z,1.17
2022-08-24T02:57:24.570Z,1.00
2022-08-24T02:59:50.975Z,1.07
2022-08-24T03:02:17.337Z,1.15
2022-08-24T03:04:43.782Z,1.03
2022-08-24T03:07:15.883Z,0.96
2022-08-24T03:09:42.242Z,1.17
2022-08-24T03:12:08.584Z,1.17
2022-08-24T03:14:34.930Z,1.27
2022-08-24T03:17:01.279Z,1.14
2022-08-24T03:19:27.639Z,0.92
2022-08-24T03:21:53.996Z,1.01
2022-08-24T03:24:20.343Z,1.15
2022-08-24T03:26:46.705Z,1.08
2022-08-24T03:29:13.054Z,1.08
2022-08-24T03:31:39.423Z,1.01
2022-08-24T03:34:05.769Z,1.16
2022-08-24T03:36:32.115Z,1.11
2022-08-24T03:38:58.458Z,1.13
2022-08-24T03:41:24.803Z,1.12
2022-08-24T03:43:51.150Z,1.00
2022-08-24T03:46:17.581Z,0.91
2022-08-24T03:48:43.952Z,1.19
2022-08-24T03:51:10.290Z,1.07
2022-08-24T03:53:37.584Z,1.11
2022-08-24T03:56:09.292Z,1.06
2022-08-24T03:58:35.642Z,1.04
2022-08-24T04:01:02.048Z,1.04
2022-08-24T04:03:28.427Z,1.25
2022-08-24T04:05:58.907Z,0.97
2022-08-24T04:08:27.150Z,1.08
2022-08-24T04:10:53.493Z,1.06
2022-08-24T04:13:19.847Z,1.08
2022-08-24T04:15:46.212Z,1.22
2022-08-24T04:18:12.553Z,1.03
2022-08-24T04:20:38.906Z,1.20
2022-08-24T04:23:05.475Z,1.13
2022-08-24T04:25:31.955Z,1.12
2022-08-24T04:27:58.310Z,1.11
2022-08-24T04:30:24.681Z,1.13
2022-08-24T04:32:51.026Z,1.21
2022-08-24T04:35:17.396Z,0.98
2022-08-24T04:37:43.747Z,0.97
2022-08-24T04:40:10.117Z,1.01
2022-08-24T04:42:36.986Z,0.99
2022-08-24T04:45:03.419Z,1.03
2022-08-24T04:47:29.770Z,0.98
2022-08-24T04:49:56.117Z,1.12
2022-08-24T04:52:22.467Z,1.14
2022-08-24T04:54:48.811Z,0.95
2022-08-24T04:57:18.140Z,1.13
2022-08-24T04:59:44.792Z,1.15
2022-08-24T05:02:11.191Z,1.04
2022-08-24T05:04:37.602Z,1.08
2022-08-24T05:07:03.961Z,1.09
2022-08-24T05:09:30.303Z,1.01
2022-08-24T05:11:58.085Z,1.06
2022-08-24T05:14:28.456Z,1.27
2022-08-24T05:16:55.345Z,1.19
2022-08-24T05:19:22.001Z,1.08
2022-08-24T05:21:48.356Z,1.04
2022-08-24T05:24:14.718Z,1.12
2022-08-24T05:26:41.077Z,1.07
2022-08-24T05:29:08.683Z,1.25
2022-08-24T05:31:35.074Z,1.11
2022-08-24T05:34:01.471Z,1.18
2022-08-24T05:36:27.831Z,1.11
2022-08-24T05:38:54.192Z,1.04
2022-08-24T05:41:20.579Z,1.12
2022-08-24T05:43:46.917Z,0.99
2022-08-24T05:46:13.314Z,1.16
2022-08-24T05:48:39.703Z,1.34
2022-08-24T05:51:06.041Z,1.08
2022-08-24T05:53:32.398Z,1.05
2022-08-24T05:55:58.802Z,1.14
2022-08-24T05:58:31.369Z,1.25
2022-08-24T06:00:57.846Z,1.15
2022-08-24T06:03:24.195Z,1.25
2022-08-24T06:05:50.555Z,1.28
2022-08-24T06:08:16.930Z,1.17
2022-08-24T06:10:43.290Z,1.25
2022-08-24T06:13:09.652Z,1.24
2022-08-24T06:15:36.030Z,1.09
2022-08-24T06:18:02.528Z,1.10
2022-08-24T06:20:28.922Z,1.22
2022-08-24T06:22:55.298Z,1.26
2022-08-24T06:25:21.638Z,1.22
2022-08-24T06:27:47.983Z,1.30
2022-08-24T06:30:14.335Z,1.24
2022-08-24T06:32:41.066Z,1.07
2022-08-24T06:35:07.455Z,1.18
2022-08-24T06:37:37.862Z,1.30
2022-08-24T06:40:04.344Z,1.20
2022-08-24T06:42:30.703Z,1.16
2022-08-24T06:44:57.062Z,1.21
2022-08-24T06:47:23.429Z,1.26
2022-08-24T06:49:49.809Z,1.18
2022-08-24T06:52:16.167Z,1.40
2022-08-24T06:54:42.518Z,1.28
2022-08-24T06:57:08.875Z,1.17
2022-08-24T06:59:35.224Z,1.23
2022-08-24T07:02:01.600Z,1.23
2022-08-24T07:04:28.339Z,1.11
2022-08-24T07:06:54.797Z,1.30
2022-08-24T07:09:21.140Z,1.11
2022-08-24T07:11:47.484Z,1.27
2022-08-24T07:14:13.831Z,1.29
2022-08-24T07:16:40.187Z,1.35
2022-08-24T07:19:06.534Z,1.13
2022-08-24T07:21:32.898Z,1.20
2022-08-24T07:23:59.246Z,1.23
2022-08-24T07:26:25.598Z,1.18
2022-08-24T07:28:51.956Z,1.31
2022-08-24T07:31:18.397Z,1.31
2022-08-24T07:33:44.787Z,1.32
2022-08-24T07:36:11.210Z,1.56
2022-08-24T07:38:43.313Z,1.71
2022-08-24T07:41:36.573Z,1.20
2022-08-24T07:43:55.983Z,1.37
2022-08-24T07:46:22.438Z,1.35
2022-08-24T07:48:56.097Z,1.26
2022-08-24T07:54:02.874Z,1.26
2022-08-24T07:56:33.376Z,1.42
2022-08-24T07:58:59.787Z,1.62
2022-08-24T08:01:26.186Z,1.41
2022-08-24T08:03:52.561Z,1.31
2022-08-24T08:06:18.923Z,1.32
2022-08-24T08:08:45.292Z,1.32
2022-08-24T08:11:11.653Z,1.50
2022-08-24T08:13:38.159Z,1.42
2022-08-24T08:16:07.923Z,1.44
2022-08-24T08:18:35.127Z,1.45
2022-08-24T08:21:01.490Z,1.36
2022-08-24T08:23:27.845Z,1.48
2022-08-24T08:25:54.199Z,1.37
2022-08-24T08:28:25.975Z,1.35
2022-08-24T08:30:59.592Z,1.36
2022-08-24T08:33:27.925Z,1.52
2022-08-24T08:35:54.278Z,1.46
2022-08-24T08:38:20.624Z,1.58
2022-08-24T08:40:46.979Z,1.56
2022-08-24T08:43:13.340Z,1.43
2022-08-24T08:45:39.683Z,1.31
2022-08-24T08:48:06.048Z,1.44
2022-08-24T08:50:32.411Z,1.64
2022-08-24T08:52:58.776Z,1.38
2022-08-24T08:55:25.186Z,1.37
2022-08-24T08:57:55.823Z,1.30
2022-08-24T09:00:24.561Z,1.36
2022-08-24T09:02:51.230Z,1.65
2022-08-24T09:05:17.577Z,1.59
2022-08-24T09:07:43.949Z,1.52
2022-08-24T09:10:10.357Z,1.71
2022-08-24T09:12:36.778Z,1.46
2022-08-24T09:15:03.133Z,1.64
2022-08-24T09:17:29.488Z,1.71
2022-08-24T09:19:55.843Z,1.78
2022-08-24T09:22:22.212Z,1.70
2022-08-24T09:24:48.579Z,1.60
2022-08-24T09:27:14.933Z,1.48
2022-08-24T09:29:41.434Z,1.64
2022-08-24T09:32:13.035Z,1.62
2022-08-24T09:34:40.463Z,1.73
2022-08-24T09:37:06.806Z,1.53
2022-08-24T09:39:33.175Z,1.60
2022-08-24T09:41:59.528Z,1.78
2022-08-24T09:44:25.885Z,1.66
2022-08-24T09:46:52.250Z,1.61
2022-08-24T09:49:18.611Z,1.54
2022-08-24T09:51:45.007Z,1.59
2022-08-24T09:54:11.901Z,1.58
2022-08-24T09:56:38.273Z,1.75
2022-08-24T09:59:04.637Z,1.65
2022-08-24T10:01:31.089Z,1.66
2022-08-24T10:03:57.512Z,1.56
2022-08-24T10:06:23.861Z,1.55
2022-08-24T10:08:50.219Z,1.58
2022-08-24T10:11:16.574Z,1.50
2022-08-24T10:13:42.943Z,1.51
2022-08-24T10:16:09.571Z,1.63
2022-08-24T10:18:35.964Z,1.77
2022-08-24T10:21:02.384Z,1.69
2022-08-24T10:23:28.738Z,1.70
2022-08-24T10:25:55.093Z,1.73
2022-08-24T10:28:21.461Z,1.63
2022-08-24T10:30:47.822Z,1.62
2022-08-24T10:33:14.174Z,1.75
2022-08-24T10:35:40.526Z,1.59
2022-08-24T10:38:06.876Z,1.74
2022-08-24T10:40:34.353Z,1.74
2022-08-24T10:43:00.803Z,1.81
2022-08-24T10:45:27.215Z,1.82
2022-08-24T10:47:53.594Z,1.85
2022-08-24T10:50:19.967Z,1.88
2022-08-24T10:52:46.325Z,1.92
2022-08-24T10:55:12.675Z,1.70
2022-08-24T10:57:39.029Z,1.87
2022-08-24T11:00:05.383Z,1.77
2022-08-24T11:02:33.439Z,1.81
2022-08-24T11:04:59.839Z,1.78
2022-08-24T11:07:26.187Z,1.86
2022-08-24T11:09:52.540Z,1.75
2022-08-24T11:12:18.898Z,1.79
2022-08-24T11:14:45.270Z,1.91
2022-08-24T11:17:11.621Z,2.03
2022-08-24T11:19:37.989Z,1.90
2022-08-24T11:22:04.337Z,2.02
2022-08-24T11:24:30.695Z,1.80
2022-08-24T11:26:57.043Z,2.08
2022-08-24T11:29:23.402Z,1.83
2022-08-24T11:31:49.793Z,1.90
2022-08-24T11:34:16.225Z,2.02
2022-08-24T11:36:42.570Z,1.93
2022-08-24T11:39:08.921Z,1.94
2022-08-24T11:41:35.298Z,2.06
2022-08-24T11:44:01.657Z,1.85
2022-08-24T11:46:28.039Z,1.88
2022-08-24T11:48:54.436Z,1.79
2022-08-24T11:51:20.788Z,2.12
2022-08-24T11:53:47.182Z,1.90
2022-08-24T11:56:18.711Z,1.90
2022-08-24T11:58:47.771Z,2.01
2022-08-24T12:01:14.129Z,2.09
2022-08-24T12:03:40.478Z,2.04
2022-08-24T12:06:06.828Z,2.06
2022-08-24T12:08:33.186Z,1.91
2022-08-24T12:10:59.537Z,1.89
2022-08-24T12:13:25.896Z,2.11
2022-08-24T12:15:52.410Z,1.98
2022-08-24T12:18:18.792Z,1.98
2022-08-24T12:20:48.029Z,1.97
2022-08-24T12:23:14.694Z,2.17
2022-08-24T12:25:41.055Z,2.03
2022-08-24T12:28:07.421Z,2.04
2022-08-24T12:30:33.775Z,1.95
2022-08-24T12:33:00.168Z,2.13
2022-08-24T12:35:26.551Z,1.90
2022-08-24T12:37:52.903Z,1.92
2022-08-24T12:40:19.310Z,2.11
2022-08-24T12:42:51.724Z,1.94
2022-08-24T12:45:18.785Z,2.06
2022-08-24T12:47:45.206Z,2.02
2022-08-24T12:50:11.569Z,1.99
2022-08-24T12:52:37.918Z,2.01
2022-08-24T12:55:04.270Z,2.16
2022-08-24T12:57:30.626Z,2.00
2022-08-24T12:59:56.990Z,2.04
2022-08-24T13:02:23.411Z,2.05
2022-08-24T13:04:49.826Z,2.07
2022-08-24T13:07:16.202Z,2.00
2022-08-24T13:09:42.566Z,1.83
2022-08-24T13:12:09.011Z,1.96
2022-08-24T13:14:35.368Z,1.98
2022-08-24T13:17:01.762Z,1.95
2022-08-24T13:19:28.117Z,2.06
2022-08-24T13:21:54.499Z,2.09
2022-08-24T13:24:20.994Z,2.12
2022-08-24T13:26:47.349Z,2.24
2022-08-24T13:29:13.706Z,2.02
2022-08-24T13:31:40.111Z,2.09
2022-08-24T13:34:06.513Z,2.13
2022-08-24T13:36:32.867Z,2.19
2022-08-24T13:38:59.213Z,2.23
2022-08-24T13:41:25.563Z,1.88
2022-08-24T13:43:52.000Z,2.05
2022-08-24T13:46:18.402Z,2.38
2022-08-24T13:48:44.805Z,2.04
2022-08-24T13:51:11.169Z,2.22
2022-08-24T13:53:37.520Z,1.97
2022-08-24T13:56:04.292Z,2.14
2022-08-24T13:58:30.650Z,2.03
2022-08-24T14:01:01.464Z,2.19
2022-08-24T14:03:28.207Z,2.02
2022-08-24T14:05:57.511Z,2.12
2022-08-24T14:08:24.239Z,2.07
2022-08-24T14:10:53.651Z,2.13
2022-08-24T14:13:25.872Z,2.23
2022-08-24T14:15:52.911Z,2.12
2022-08-24T14:18:19.308Z,2.05
2022-08-24T14:20:45.671Z,2.23
2022-08-24T14:23:12.026Z,2.08
2022-08-24T14:25:38.379Z,2.08
2022-08-24T14:28:04.960Z,2.11
2022-08-24T14:30:31.433Z,2.14
2022-08-24T14:32:57.794Z,2.24
2022-08-24T14:35:24.183Z,2.14
2022-08-24T14:37:53.501Z,2.31
2022-08-24T14:40:23.130Z,2.27
2022-08-24T14:42:49.533Z,2.11
2022-08-24T14:45:15.911Z,2.15
2022-08-24T14:47:42.276Z,2.21
2022-08-24T14:50:12.649Z,2.06
2022-08-24T14:52:39.569Z,2.14
2022-08-24T14:55:05.986Z,2.15
2022-08-24T14:57:32.330Z,2.19
2022-08-24T14:59:58.687Z,2.03
2022-08-24T15:02:25.039Z,2.08
2022-08-24T15:04:51.396Z,2.03
2022-08-24T15:07:17.748Z,2.09
2022-08-24T15:09:44.098Z,2.14
2022-08-24T15:12:10.454Z,2.07
2022-08-24T15:14:37.570Z,2.25
2022-08-24T15:17:04.045Z,2.14
2022-08-24T15:19:30.469Z,2.12
2022-08-24T15:21:56.936Z,2.15
2022-08-24T15:26:54.558Z,2.35
2022-08-24T15:29:20.908Z,2.23
2022-08-24T15:31:47.263Z,2.17
2022-08-24T15:34:13.627Z,2.03
2022-08-24T15:36:40.005Z,2.07
2022-08-24T15:39:06.356Z,2.25
2022-08-24T15:41:32.729Z,2.13
2022-08-24T15:43:59.086Z,2.19
2022-08-24T15:46:25.502Z,2.25
2022-08-24T15:48:51.893Z,2.14
2022-08-24T15:51:18.244Z,2.05
2022-08-24T15:53:44.621Z,2.13
2022-08-24T15:56:10.975Z,2.23
2022-08-24T15:58:37.331Z,2.23
2022-08-24T16:01:03.824Z,2.11
2022-08-24T16:03:30.185Z,2.17
2022-08-24T16:05:56.543Z,1.98
2022-08-24T16:08:22.893Z,2.20
2022-08-24T16:10:49.247Z,1.92
2022-08-24T16:13:15.600Z,2.10
2022-08-24T16:15:41.954Z,1.95
2022-08-24T16:18:08.311Z,2.03
2022-08-24T16:20:34.795Z,2.17
2022-08-24T16:23:01.169Z,2.00
2022-08-24T16:25:27.589Z,2.29
2022-08-24T16:27:53.942Z,2.17
2022-08-24T16:30:20.286Z,2.12
2022-08-24T16:32:53.500Z,2.00
2022-08-24T16:35:20.114Z,1.90
2022-08-24T16:37:46.455Z,2.05
2022-08-24T16:40:12.853Z,2.12
2022-08-24T16:42:39.252Z,2.05
2022-08-24T16:45:05.604Z,2.12
2022-08-24T16:47:31.955Z,2.02
2022-08-24T16:49:58.349Z,2.16
2022-08-24T16:52:24.707Z,1.96
2022-08-24T16:54:51.054Z,2.04
2022-08-24T16:57:17.410Z,2.08
2022-08-24T16:59:43.772Z,2.08
2022-08-24T17:02:10.200Z,1.89
2022-08-24T17:04:36.701Z,2.01
2022-08-24T17:07:03.058Z,2.09
2022-08-24T17:09:29.414Z,1.95
2022-08-24T17:11:55.770Z,2.02
2022-08-24T17:14:22.124Z,2.03
2022-08-24T17:16:48.567Z,2.02
2022-08-24T17:19:14.984Z,1.92
2022-08-24T17:21:43.369Z,2.02
2022-08-24T17:24:09.729Z,2.05
2022-08-24T17:26:36.098Z,2.04
2022-08-24T17:29:02.463Z,1.93
2022-08-24T17:31:28.860Z,1.92
2022-08-24T17:33:55.285Z,2.07
2022-08-24T17:36:21.671Z,1.76
2022-08-24T17:38:54.654Z,2.00
2022-08-24T17:41:22.003Z,1.97
2022-08-24T17:43:48.354Z,1.95
2022-08-24T17:46:14.765Z,1.97
2022-08-24T17:48:41.181Z,2.15
2022-08-24T17:51:07.526Z,2.01
2022-08-24T17:53:33.919Z,2.03
2022-08-24T17:56:00.272Z,1.83
2022-08-24T17:58:26.638Z,1.99
2022-08-24T18:00:53.033Z,1.74
2022-08-24T18:03:19.404Z,1.93
2022-08-24T18:05:45.764Z,1.89
2022-08-24T18:08:12.123Z,1.99
2022-08-24T18:10:38.511Z,1.78
2022-08-24T18:13:04.960Z,1.95
2022-08-24T18:15:34.899Z,1.79
2022-08-24T18:18:02.506Z,1.72
2022-08-24T18:20:28.872Z,1.95
2022-08-24T18:22:55.227Z,1.78
2022-08-24T18:25:22.991Z,1.70
2022-08-24T18:27:49.339Z,1.67
2022-08-24T18:30:15.883Z,1.81
2022-08-24T18:32:42.254Z,1.75
2022-08-24T18:35:08.602Z,1.86
2022-08-24T18:37:34.955Z,1.60
2022-08-24T18:40:01.342Z,1.80
2022-08-24T18:42:27.985Z,1.83
2022-08-24T18:44:54.395Z,1.75
2022-08-24T18:47:20.770Z,1.81
2022-08-24T18:49:47.127Z,1.75
2022-08-24T18:52:13.485Z,1.72
2022-08-24T18:54:39.844Z,1.78
2022-08-24T18:57:06.209Z,1.81
2022-08-24T18:59:32.578Z,1.79
2022-08-24T19:01:59.043Z,1.58
2022-08-24T19:04:29.473Z,1.68
2022-08-24T19:06:59.907Z,1.79
2022-08-24T19:09:28.693Z,1.55
2022-08-24T19:11:57.171Z,1.79
2022-08-24T19:14:23.526Z,1.68
2022-08-24T19:16:49.910Z,1.69
2022-08-24T19:19:18.974Z,1.60
2022-08-24T19:21:45.320Z,1.72
2022-08-24T19:24:11.680Z,1.67
2022-08-24T19:26:38.037Z,1.74
2022-08-24T19:29:04.397Z,1.69
2022-08-24T19:31:30.782Z,1.58
2022-08-24T19:33:57.170Z,1.62
2022-08-24T19:36:23.973Z,1.60
2022-08-24T19:38:50.332Z,1.82
2022-08-24T19:41:18.609Z,1.63
2022-08-24T19:43:46.628Z,1.43
2022-08-24T19:46:13.038Z,1.67
2022-08-24T19:48:39.433Z,1.68
2022-08-24T19:51:05.803Z,1.76
2022-08-24T19:53:32.159Z,1.68
2022-08-24T19:55:58.524Z,1.61
2022-08-24T19:58:24.873Z,1.64
2022-08-24T20:00:51.805Z,1.71
2022-08-24T20:03:18.332Z,1.61
2022-08-24T20:05:44.696Z,1.68
2022-08-24T20:08:11.062Z,1.80
2022-08-24T20:10:37.418Z,1.68
2022-08-24T20:13:04.003Z,1.54
2022-08-24T20:15:30.572Z,1.60
2022-08-24T20:17:56.931Z,1.59
2022-08-24T20:20:23.309Z,1.59
2022-08-24T20:22:49.675Z,1.67
2022-08-24T20:25:16.026Z,1.73
2022-08-24T20:27:42.399Z,1.84
2022-08-24T20:30:08.760Z,1.49
2022-08-24T20:32:35.181Z,1.57
2022-08-24T20:35:01.563Z,1.63
2022-08-24T20:37:27.930Z,1.70
2022-08-24T20:39:55.281Z,1.73
2022-08-24T20:42:21.709Z,1.48
2022-08-24T20:44:48.059Z,1.41
2022-08-24T20:47:14.415Z,1.68
2022-08-24T20:49:40.763Z,1.48
2022-08-24T20:52:07.112Z,1.43
2022-08-24T20:54:36.610Z,1.70
2022-08-24T20:57:05.772Z,1.70
2022-08-24T20:59:32.115Z,1.54
2022-08-24T21:01:58.468Z,1.50
2022-08-24T21:04:24.823Z,1.68
2022-08-24T21:06:51.484Z,1.51
2022-08-24T21:09:17.846Z,1.61
2022-08-24T21:11:44.201Z,1.60
2022-08-24T21:14:10.558Z,1.52
2022-08-24T21:16:36.947Z,1.52
2022-08-24T21:19:03.345Z,1.43
2022-08-24T21:21:29.698Z,1.61
2022-08-24T21:23:56.054Z,1.59
2022-08-24T21:26:22.428Z,1.51
2022-08-24T21:28:48.788Z,1.49
2022-08-24T21:31:15.191Z,1.63
2022-08-24T21:33:41.630Z,1.57
2022-08-24T21:36:07.987Z,1.39
2022-08-24T21:38:34.346Z,1.34
2022-08-24T21:41:01.138Z,1.46
2022-08-24T21:43:29.011Z,1.39
2022-08-24T21:45:55.359Z,1.42
2022-08-24T21:48:21.701Z,1.55
2022-08-24T21:50:48.062Z,1.52
2022-08-24T21:53:14.416Z,1.59
2022-08-24T21:55:40.783Z,1.46
2022-08-24T21:58:07.144Z,1.27
2022-08-24T22:00:33.514Z,1.47
2022-08-24T22:02:59.993Z,1.60
2022-08-24T22:05:26.486Z,1.38
2022-08-24T22:07:52.854Z,1.49
2022-08-24T22:10:19.202Z,1.48
2022-08-24T22:12:45.571Z,1.54
2022-08-24T22:15:11.932Z,1.50
2022-08-24T22:17:38.281Z,1.61
2022-08-24T22:20:04.627Z,1.53
2022-08-24T22:22:31.563Z,1.42
2022-08-24T22:24:57.916Z,1.26
2022-08-24T22:27:25.066Z,1.44
2022-08-24T22:29:52.814Z,1.40
2022-08-24T22:32:19.358Z,1.40
2022-08-24T22:34:45.712Z,1.38
2022-08-24T22:37:12.058Z,1.42
2022-08-24T22:39:38.412Z,1.49
2022-08-24T22:42:04.766Z,1.46
2022-08-24T22:44:31.122Z,1.34
2022-08-24T22:46:57.489Z,1.31
2022-08-24T22:49:24.474Z,1.54
2022-08-24T22:51:50.841Z,1.47
2022-08-24T22:54:17.399Z,1.44
2022-08-24T22:56:43.766Z,1.35
2022-08-24T22:59:10.360Z,1.43
2022-08-24T23:01:36.816Z,1.43
2022-08-24T23:04:03.285Z,1.35
2022-08-24T23:06:29.687Z,1.26
2022-08-24T23:08:56.038Z,1.32
2022-08-24T23:11:22.396Z,1.42
2022-08-24T23:13:48.750Z,1.57
2022-08-24T23:16:15.126Z,1.33
2022-08-24T23:18:41.509Z,1.46
2022-08-24T23:21:07.859Z,1.28
2022-08-24T23:23:34.218Z,1.32
2022-08-24T23:26:00.571Z,1.39
2022-08-24T23:28:27.013Z,1.34
2022-08-24T23:30:53.425Z,1.43
2022-08-24T23:33:19.813Z,1.40
2022-08-24T23:35:46.182Z,1.35
2022-08-24T23:38:12.542Z,1.40
2022-08-24T23:40:38.886Z,1.37
2022-08-24T23:43:05.233Z,1.43
2022-08-24T23:45:31.602Z,1.37
2022-08-24T23:47:57.957Z,1.33
2022-08-24T23:50:24.314Z,1.44
2022-08-24T23:52:50.662Z,1.46
2022-08-24T23:55:21.289Z,1.30
2022-08-24T23:57:48.436Z,1.41
